Time;durP1;ratioP1;P1;durP2;ratioP2;P2;SDS_P1;SDS_P2;PMS_P1;PMS_P2;Temp;Humidity;BMP_temperature;BMP_pressure;BME280_temperature;BME280_humidity;BME280_pressure;Samples;Min_cycle;Max_cycle;Signal;HPM_P1;HPM_P2
2021/12/11 00:01:26;;;;;;;6.35;2.33;;;-2.90;99.90;;;;;;5017809;28;20056;-65
2021/12/11 00:03:59;;;;;;;9.90;3.10;;;-3.00;99.90;;;;;;5030489;28;20056;-65
2021/12/11 00:06:29;;;;;;;9.07;2.53;;;-3.00;99.90;;;;;;5017396;28;20038;-65
2021/12/11 00:08:57;;;;;;;;;;;-3.10;99.90;;;;;;5020294;28;20131;-65
2021/12/11 00:11:35;;;;;;;7.55;4.28;;;-3.00;99.90;;;;;;5015552;28;20039;-65
2021/12/11 00:14:03;;;;;;;5.43;2.70;;;-2.90;99.90;;;;;;5026778;28;20033;-65
2021/12/11 00:16:33;;;;;;;10.57;4.10;;;-2.80;99.90;;;;;;5024812;28;20037;-65
2021/12/11 00:19:09;;;;;;;2.40;1.60;;;-2.90;99.90;;;;;;5024733;28;20099;-65
2021/12/11 00:21:36;;;;;;;5.95;2.10;;;-2.90;99.90;;;;;;5019723;28;20060;-65
2021/12/11 00:24:11;;;;;;;7.15;3.00;;;-3.00;99.90;;;;;;5022221;28;20054;-65
2021/12/11 00:26:43;;;;;;;18.40;3.33;;;-3.10;99.90;;;;;;5015228;28;20045;-65
2021/12/11 00:29:13;;;;;;;8.65;2.70;;;-2.80;99.90;;;;;;5017798;28;20093;-65
2021/12/11 00:31:45;;;;;;;4.55;2.45;;;-2.70;99.90;;;;;;5021890;28;20052;-65
2021/12/11 00:34:12;;;;;;;9.90;4.45;;;-2.80;99.90;;;;;;5023711;28;20364;-65
2021/12/11 00:36:38;;;;;;;9.15;2.88;;;-3.00;99.90;;;;;;5023119;28;20802;-65
2021/12/11 00:39:12;;;;;;;4.28;2.83;;;-3.00;99.90;;;;;;5020495;28;20357;-65
2021/12/11 00:41:39;;;;;;;5.15;2.72;;;-3.20;99.90;;;;;;5014106;28;20086;-65
2021/12/11 00:44:05;;;;;;;6.00;2.35;;;-3.10;99.90;;;;;;5024598;28;20051;-65
2021/12/11 00:46:32;;;;;;;12.80;4.00;;;-3.00;99.90;;;;;;5025280;28;20034;-65
2021/12/11 00:49:11;;;;;;;7.45;3.08;;;-3.20;99.90;;;;;;5019628;28;20029;-65
2021/12/11 00:51:37;;;;;;;5.97;2.45;;;-3.30;99.90;;;;;;5018292;28;20072;-65
2021/12/11 00:54:03;;;;;;;3.90;2.45;;;-3.20;99.90;;;;;;5022978;28;20284;-65
2021/12/11 00:56:36;;;;;;;6.15;2.45;;;-3.30;99.90;;;;;;5014391;28;20021;-65
2021/12/11 00:59:08;;;;;;;6.03;2.92;;;-3.20;99.90;;;;;;5023707;28;20472;-65
2021/12/11 01:01:56;;;;;;;6.60;3.63;;;-3.10;99.90;;;;;;5015993;28;20014;-65
2021/12/11 01:04:28;;;;;;;6.97;2.50;;;-3.00;99.90;;;;;;5024274;28;20030;-65
2021/12/11 01:06:56;;;;;;;6.10;3.30;;;-3.10;99.90;;;;;;5019502;28;20508;-65
2021/12/11 01:09:38;;;;;;;5.03;2.03;;;-3.00;99.90;;;;;;5023343;28;20067;-65
2021/12/11 01:12:12;;;;;;;6.15;2.83;;;-3.10;99.90;;;;;;5021417;28;20111;-65
2021/12/11 01:14:58;;;;;;;3.92;2.03;;;-3.00;99.90;;;;;;5022014;28;20049;-65
2021/12/11 01:21:14;;;;;;;4.32;2.45;;;-2.90;99.90;;;;;;5011536;28;20045;-65
2021/12/11 01:26:11;;;;;;;13.02;3.00;;;-2.90;99.90;;;;;;5017962;28;20475;-65
2021/12/11 01:28:38;;;;;;;5.35;2.38;;;-2.90;99.90;;;;;;5016704;28;20049;-66
2021/12/11 01:31:07;;;;;;;4.55;2.92;;;-3.10;99.90;;;;;;5019028;28;20028;-65
2021/12/11 01:33:34;;;;;;;10.38;4.20;;;-2.90;99.90;;;;;;5025567;28;20049;-65
2021/12/11 01:36:00;;;;;;;4.85;2.22;;;-3.10;99.90;;;;;;5024456;28;20060;-65
2021/12/11 01:38:29;;;;;;;5.63;3.13;;;-3.00;99.90;;;;;;5023964;28;20022;-65
2021/12/11 01:41:00;;;;;;;6.72;3.28;;;-3.10;99.90;;;;;;5022636;28;20021;-65
2021/12/11 01:43:31;;;;;;;6.60;3.20;;;-3.00;99.90;;;;;;5017426;28;20462;-65
2021/12/11 01:45:59;;;;;;;7.57;3.17;;;-3.00;99.90;;;;;;5026405;28;20025;-65
2021/12/11 01:48:29;;;;;;;6.05;3.10;;;-3.20;99.90;;;;;;5018796;28;20030;-65
2021/12/11 01:51:11;;;;;;;17.63;3.75;;;-3.40;99.90;;;;;;5018099;28;20038;-65
2021/12/11 01:53:41;;;;;;;23.98;3.17;;;-3.40;99.90;;;;;;5019103;28;20037;-65
2021/12/11 01:56:15;;;;;;;6.53;3.33;;;-3.20;99.90;;;;;;5025707;28;20049;-65
2021/12/11 01:58:50;;;;;;;4.07;2.22;;;-3.30;99.90;;;;;;5016295;28;20061;-65
2021/12/11 02:01:24;;;;;;;7.30;3.15;;;-3.20;99.90;;;;;;5018099;28;20049;-65
2021/12/11 02:03:53;;;;;;;9.35;3.60;;;-3.20;99.90;;;;;;5026934;28;20024;-65
2021/12/11 02:06:19;;;;;;;4.00;2.45;;;-3.30;99.90;;;;;;5027393;28;20653;-65
2021/12/11 02:08:45;;;;;;;4.95;2.13;;;-3.20;99.90;;;;;;5027713;28;20259;-65
2021/12/11 02:11:18;;;;;;;4.10;2.08;;;-3.00;99.90;;;;;;5026884;28;20021;-65
2021/12/11 02:13:53;;;;;;;4.35;2.35;;;-3.10;99.90;;;;;;5026919;28;20389;-65
2021/12/11 02:16:29;;;;;;;4.07;2.15;;;-3.10;99.90;;;;;;5021690;28;20049;-65
2021/12/11 02:19:02;;;;;;;6.07;2.95;;;-3.10;99.90;;;;;;5013947;28;20321;-65
2021/12/11 02:21:43;;;;;;;8.63;3.20;;;-3.00;99.90;;;;;;5026256;28;20036;-65
2021/12/11 02:24:15;;;;;;;3.80;2.33;;;-3.10;99.90;;;;;;5026724;28;20501;-65
2021/12/11 02:26:42;;;;;;;5.93;3.05;;;-3.10;99.90;;;;;;5024674;28;20025;-65
2021/12/11 02:29:20;;;;;;;5.97;3.10;;;-3.20;99.90;;;;;;5029772;28;20444;-65
2021/12/11 02:32:06;;;;;;;5.43;2.25;;;-3.30;99.90;;;;;;5022103;28;20036;-65
2021/12/11 02:34:35;;;;;;;2.65;1.95;;;-3.30;99.90;;;;;;5026529;28;20029;-65
2021/12/11 02:37:21;;;;;;;6.13;3.60;;;-3.20;99.90;;;;;;5028070;28;20477;-65
2021/12/11 02:39:58;;;;;;;6.15;2.53;;;-3.30;99.90;;;;;;5029333;28;20072;-65
2021/12/11 02:42:44;;;;;;;5.82;3.20;;;-3.20;99.90;;;;;;5027055;28;20036;-65
2021/12/11 02:45:18;;;;;;;5.20;2.72;;;-3.30;99.90;;;;;;5024884;28;20041;-65
2021/12/11 02:48:16;;;;;;;3.30;2.10;;;-3.30;99.90;;;;;;5016146;28;20480;-65
2021/12/11 02:50:49;;;;;;;5.45;2.88;;;-3.30;99.90;;;;;;5018566;28;20044;-64
2021/12/11 02:53:24;;;;;;;4.05;1.77;;;-3.30;99.90;;;;;;5029407;28;20026;-64
2021/12/11 02:56:04;;;;;;;4.43;2.67;;;-3.20;99.90;;;;;;5027021;28;20057;-65
2021/12/11 02:58:33;;;;;;;8.88;3.92;;;-3.20;99.90;;;;;;5028643;28;20025;-65
2021/12/11 03:01:09;;;;;;;5.43;2.25;;;-3.30;99.90;;;;;;5025801;28;20029;-65
2021/12/11 03:03:41;;;;;;;3.95;2.50;;;-3.40;99.90;;;;;;5028329;28;20036;-65
2021/12/11 03:06:20;;;;;;;8.13;3.13;;;-3.50;99.90;;;;;;5027542;28;20200;-65
2021/12/11 03:08:48;;;;;;;4.93;2.80;;;-3.50;99.90;;;;;;5027937;28;20025;-65
2021/12/11 03:11:17;;;;;;;7.20;3.05;;;-3.50;99.90;;;;;;5026714;28;20103;-65
2021/12/11 03:13:50;;;;;;;4.47;2.47;;;-3.50;99.90;;;;;;5026529;28;20032;-65
2021/12/11 03:16:21;;;;;;;6.10;3.05;;;-3.50;99.90;;;;;;5024258;28;20111;-65
2021/12/11 03:18:46;;;;;;;4.28;2.55;;;-3.50;99.90;;;;;;5023579;28;20062;-65
2021/12/11 03:21:12;;;;;;;3.75;2.25;;;-3.40;99.90;;;;;;5024555;28;20057;-65
2021/12/11 03:23:38;;;;;;;6.82;2.38;;;-3.30;99.90;;;;;;5020752;28;20025;-65
2021/12/11 03:26:04;;;;;;;5.93;2.58;;;-3.30;99.90;;;;;;5019664;28;20143;-65
2021/12/11 03:28:30;;;;;;;11.70;3.17;;;-3.30;99.90;;;;;;5024771;28;20109;-65
2021/12/11 03:31:00;;;;;;;5.13;3.25;;;-3.20;99.90;;;;;;5023677;28;20141;-65
2021/12/11 03:33:30;;;;;;;8.13;4.05;;;-3.20;99.90;;;;;;5019953;28;20022;-65
2021/12/11 03:35:56;;;;;;;;;;;-3.10;99.90;;;;;;5028556;28;20037;-65
2021/12/11 03:38:25;;;;;;;14.02;2.65;;;-3.10;99.90;;;;;;5022221;28;19909;-65
2021/12/11 03:40:51;;;;;;;4.63;3.05;;;-3.20;99.90;;;;;;5021912;28;20061;-65
2021/12/11 03:43:20;;;;;;;6.53;2.78;;;-3.30;99.90;;;;;;5023085;28;20036;-65
2021/12/11 03:45:50;;;;;;;3.38;2.08;;;-3.00;99.90;;;;;;5022327;28;20014;-65
2021/12/11 03:48:21;;;;;;;9.43;3.75;;;-3.00;99.90;;;;;;5024811;28;20053;-65
2021/12/11 03:50:47;;;;;;;7.32;3.10;;;-3.10;99.90;;;;;;5026401;28;20107;-65
2021/12/11 03:53:14;;;;;;;6.30;2.22;;;-3.20;99.90;;;;;;5031324;28;20332;-65
2021/12/11 03:55:44;;;;;;;6.32;2.45;;;-3.30;99.90;;;;;;5027265;28;20061;-65
2021/12/11 03:58:10;;;;;;;5.97;3.05;;;-3.30;99.90;;;;;;5034652;28;20051;-65
2021/12/11 04:00:42;;;;;;;7.05;3.15;;;-3.20;99.90;;;;;;5026725;28;20104;-65
2021/12/11 04:03:11;;;;;;;5.05;2.95;;;-3.30;99.90;;;;;;5033500;28;20029;-65
2021/12/11 04:05:41;;;;;;;7.30;3.33;;;-3.30;99.90;;;;;;5024416;28;20026;-65
2021/12/11 04:08:08;;;;;;;19.02;4.45;;;-3.40;99.90;;;;;;5032830;28;20045;-65
2021/12/11 04:10:35;;;;;;;8.10;3.33;;;-3.40;99.90;;;;;;5027253;28;20531;-66
2021/12/11 04:13:06;;;;;;;8.52;2.63;;;-3.40;99.90;;;;;;5032325;28;20448;-65
2021/12/11 04:15:32;;;;;;;4.85;2.33;;;-3.20;99.90;;;;;;5033720;28;20056;-65
2021/12/11 04:17:58;;;;;;;8.77;2.47;;;-3.20;99.90;;;;;;5032594;28;20034;-65
2021/12/11 04:20:27;;;;;;;4.75;2.30;;;-3.10;99.90;;;;;;5033205;28;20039;-65
2021/12/11 04:22:53;;;;;;;5.35;2.92;;;-3.20;99.90;;;;;;5032008;28;20156;-65
2021/12/11 04:25:23;;;;;;;4.43;2.97;;;-3.10;99.90;;;;;;5031397;28;20018;-64
2021/12/11 04:27:50;;;;;;;6.28;3.28;;;-3.20;99.90;;;;;;5032259;28;20029;-65
2021/12/11 04:30:20;;;;;;;6.40;3.40;;;-3.30;99.90;;;;;;5025984;28;20037;-65
2021/12/11 04:32:47;;;;;;;8.82;3.70;;;-3.20;99.90;;;;;;5030250;28;20674;-65
2021/12/11 04:35:15;;;;;;;6.57;3.55;;;-3.20;99.90;;;;;;5032346;28;20025;-65
2021/12/11 04:37:42;;;;;;;4.75;2.50;;;-3.20;99.90;;;;;;5029158;28;20143;-65
2021/12/11 04:40:12;;;;;;;5.47;2.78;;;-3.20;99.90;;;;;;5032724;28;20488;-65
2021/12/11 04:43:03;;;;;;;;;;;-3.20;99.90;;;;;;5028732;28;20025;-65
2021/12/11 04:45:38;;;;;;;5.88;2.85;;;-3.20;99.90;;;;;;5028730;28;19944;-65
2021/12/11 04:48:14;;;;;;;5.00;2.78;;;-3.10;99.90;;;;;;5032645;28;20021;-65
2021/12/11 04:50:59;;;;;;;5.65;2.75;;;-3.20;99.90;;;;;;5028675;28;20112;-65
2021/12/11 05:01:26;;;;;;;8.32;3.63;;;-3.20;99.90;;;;;;5024717;28;20428;-65
2021/12/11 05:09:23;;;;;;;6.35;3.17;;;-3.30;99.90;;;;;;5026826;28;20116;-65
2021/12/11 05:12:11;;;;;;;8.98;3.35;;;-3.30;99.90;;;;;;5021999;28;20100;-65
2021/12/11 05:14:38;;;;;;;7.35;3.92;;;-3.30;99.90;;;;;;5024229;28;20394;-65
2021/12/11 05:17:05;;;;;;;6.05;3.42;;;-3.30;99.90;;;;;;5027688;28;20032;-65
2021/12/11 05:19:32;;;;;;;4.40;2.92;;;-3.30;99.90;;;;;;5026528;28;20036;-65
2021/12/11 05:21:58;;;;;;;7.18;4.00;;;-3.20;99.90;;;;;;5029504;28;20533;-65
2021/12/11 05:24:24;;;;;;;8.10;2.88;;;-3.20;99.90;;;;;;5028112;28;20478;-65
2021/12/11 05:26:50;;;;;;;6.95;3.05;;;-3.20;99.90;;;;;;5022553;28;20014;-65
2021/12/11 05:29:16;;;;;;;6.45;3.80;;;-3.20;99.90;;;;;;5029478;28;20079;-65
2021/12/11 05:31:42;;;;;;;8.63;3.85;;;-3.20;99.90;;;;;;5023277;28;20464;-65
2021/12/11 05:34:07;;;;;;;6.30;3.70;;;-3.20;99.90;;;;;;5021046;28;20030;-65
2021/12/11 05:36:35;;;;;;;5.95;3.25;;;-3.20;99.90;;;;;;5027967;28;20065;-65
2021/12/11 05:39:10;;;;;;;4.63;2.35;;;-3.20;99.90;;;;;;5021881;28;20032;-65
2021/12/11 05:41:36;;;;;;;5.30;2.70;;;-3.00;99.90;;;;;;5022107;28;20029;-65
2021/12/11 05:44:03;;;;;;;3.72;2.22;;;-3.00;99.90;;;;;;5028092;28;20025;-65
2021/12/11 05:46:29;;;;;;;37.08;4.20;;;-3.20;99.90;;;;;;5026715;28;20407;-65
2021/12/11 05:48:57;;;;;;;7.85;3.53;;;-3.40;99.90;;;;;;5019167;28;20030;-65
2021/12/11 05:51:23;;;;;;;4.55;3.05;;;-3.30;99.90;;;;;;5028869;28;20100;-65
2021/12/11 05:53:53;;;;;;;5.00;2.88;;;-3.30;99.90;;;;;;5026829;28;20257;-65
2021/12/11 05:56:21;;;;;;;4.60;2.63;;;-3.30;99.90;;;;;;5027033;28;20029;-65
2021/12/11 05:58:56;;;;;;;5.90;2.15;;;-3.30;99.90;;;;;;5025263;28;20026;-65
2021/12/11 06:01:31;;;;;;;9.25;3.75;;;-3.40;99.90;;;;;;5024937;28;20022;-65
2021/12/11 06:04:00;;;;;;;7.68;3.63;;;-3.30;99.90;;;;;;5024722;28;20409;-65
2021/12/11 06:06:26;;;;;;;6.13;2.97;;;-3.30;99.90;;;;;;5026002;28;20049;-65
2021/12/11 06:08:52;;;;;;;18.75;3.95;;;-3.30;99.90;;;;;;5026168;28;20083;-65
2021/12/11 06:11:18;;;;;;;9.02;3.47;;;-3.20;99.90;;;;;;5028077;28;20425;-65
2021/12/11 06:13:44;;;;;;;9.25;3.95;;;-3.10;99.90;;;;;;5028077;28;20041;-65
2021/12/11 06:16:10;;;;;;;6.25;3.17;;;-3.10;99.90;;;;;;5017964;28;20052;-65
2021/12/11 06:18:36;;;;;;;16.58;4.93;;;-3.20;99.90;;;;;;5024991;28;20489;-65
2021/12/11 06:21:03;;;;;;;6.95;3.63;;;-3.30;99.90;;;;;;5021162;28;20059;-65
2021/12/11 06:23:28;;;;;;;8.00;3.05;;;-3.40;99.90;;;;;;5016946;28;20045;-65
2021/12/11 06:25:55;;;;;;;17.48;3.83;;;-3.40;99.90;;;;;;5026027;28;20310;-65
2021/12/11 06:28:22;;;;;;;7.78;3.45;;;-3.30;99.90;;;;;;5023564;28;20052;-65
2021/12/11 06:30:48;;;;;;;6.68;4.30;;;-3.20;99.90;;;;;;5026818;28;20112;-65
2021/12/11 06:33:14;;;;;;;6.90;3.80;;;-3.30;99.90;;;;;;5025746;28;20100;-65
2021/12/11 06:35:49;;;;;;;5.25;3.20;;;-3.10;99.90;;;;;;5025402;28;20025;-65
2021/12/11 06:38:19;;;;;;;8.57;3.83;;;-3.20;99.90;;;;;;5026213;28;20029;-65
2021/12/11 06:40:45;;;;;;;8.10;4.28;;;-3.30;99.90;;;;;;5018661;28;20034;-65
2021/12/11 06:43:12;;;;;;;7.80;4.00;;;-3.30;99.90;;;;;;5021692;28;20040;-65
2021/12/11 06:45:38;;;;;;;10.32;6.07;;;-3.20;99.90;;;;;;5026795;28;20025;-65
2021/12/11 06:48:04;;;;;;;10.38;4.15;;;-3.20;99.90;;;;;;5026583;28;20441;-65
2021/12/11 06:50:30;;;;;;;7.50;3.33;;;-3.30;99.90;;;;;;5026721;28;20026;-65
2021/12/11 06:52:58;;;;;;;9.32;5.05;;;-3.40;99.90;;;;;;5024691;28;20370;-65
2021/12/11 06:55:25;;;;;;;8.65;3.55;;;-3.30;99.90;;;;;;5028224;28;20082;-65
2021/12/11 06:57:51;;;;;;;7.03;3.60;;;-3.40;99.90;;;;;;5026465;28;20029;-65
2021/12/11 07:00:19;;;;;;;10.38;4.40;;;-3.50;99.90;;;;;;5025977;28;20029;-65
2021/12/11 07:02:45;;;;;;;6.32;3.55;;;-3.40;99.90;;;;;;5018201;28;20124;-65
2021/12/11 07:05:11;;;;;;;3.58;2.03;;;-3.40;99.90;;;;;;5020060;28;20100;-65
2021/12/11 07:07:37;;;;;;;9.52;4.20;;;-3.30;99.90;;;;;;5026642;28;20042;-65
2021/12/11 07:10:09;;;;;;;4.90;2.65;;;-3.40;99.90;;;;;;5024616;28;20357;-65
2021/12/11 07:12:34;;;;;;;4.07;2.33;;;-3.40;99.90;;;;;;5027239;28;20494;-65
2021/12/11 07:15:01;;;;;;;9.02;4.28;;;-3.30;99.90;;;;;;5024382;28;20069;-65
2021/12/11 07:17:27;;;;;;;8.80;3.97;;;-3.30;99.90;;;;;;5025849;28;20034;-65
2021/12/11 07:19:53;;;;;;;7.20;3.22;;;-3.30;99.90;;;;;;5024785;28;20026;-66
2021/12/11 07:22:19;;;;;;;8.60;3.58;;;-3.30;99.90;;;;;;5017962;28;20414;-65
2021/12/11 07:24:53;;;;;;;3.53;2.45;;;-3.30;99.90;;;;;;5015114;28;20157;-65
2021/12/11 07:27:19;;;;;;;5.32;3.38;;;-3.00;99.90;;;;;;5023371;28;20032;-65
2021/12/11 07:29:45;;;;;;;7.55;3.67;;;-2.90;99.90;;;;;;5021350;28;20030;-66
2021/12/11 07:32:11;;;;;;;13.52;4.93;;;-2.70;99.90;;;;;;5026580;28;20049;-66
2021/12/11 07:34:38;;;;;;;7.93;4.40;;;-2.60;99.90;;;;;;5016453;28;20029;-66
2021/12/11 07:37:05;;;;;;;7.05;3.25;;;-2.40;99.90;;;;;;5030828;28;20040;-66
2021/12/11 07:39:31;;;;;;;8.25;3.83;;;-2.40;99.90;;;;;;5024885;28;20116;-66
2021/12/11 07:41:58;;;;;;;5.93;3.28;;;-2.40;99.90;;;;;;5020882;28;20052;-66
2021/12/11 07:44:25;;;;;;;7.22;3.80;;;-2.20;99.90;;;;;;5026662;28;20025;-66
2021/12/11 07:46:51;;;;;;;10.85;5.70;;;-2.10;99.90;;;;;;5026436;28;20120;-65
2021/12/11 07:49:17;;;;;;;12.98;4.85;;;-2.00;99.90;;;;;;5024001;28;20023;-65
2021/12/11 07:51:43;;;;;;;15.05;5.32;;;-1.90;99.90;;;;;;5027423;28;20071;-65
2021/12/11 07:54:10;;;;;;;17.15;5.75;;;-1.50;99.90;;;;;;5021132;28;20373;-65
2021/12/11 07:56:37;;;;;;;17.65;5.45;;;-1.30;99.90;;;;;;5016609;28;20105;-65
2021/12/11 07:59:05;;;;;;;11.13;4.65;;;-1.10;99.90;;;;;;5023651;28;20013;-65
2021/12/11 08:01:33;;;;;;;10.63;4.57;;;-1.00;99.90;;;;;;5025402;28;20060;-65
2021/12/11 08:04:00;;;;;;;7.38;3.88;;;-0.90;99.90;;;;;;5025554;28;20461;-65
2021/12/11 08:06:27;;;;;;;14.25;4.28;;;-0.80;99.90;;;;;;5021729;28;20054;-65
2021/12/11 08:08:53;;;;;;;12.48;6.18;;;-0.70;99.90;;;;;;5026236;28;20033;-64
2021/12/11 08:11:20;;;;;;;6.43;3.95;;;-0.70;99.90;;;;;;5028132;28;20013;-65
2021/12/11 08:13:50;;;;;;;16.98;6.38;;;-0.80;99.90;;;;;;5025022;28;20025;-66
2021/12/11 08:16:21;;;;;;;25.63;5.10;;;-0.80;99.90;;;;;;5025162;28;20437;-65
2021/12/11 08:18:47;;;;;;;25.08;6.43;;;-0.60;99.90;;;;;;5024632;28;20041;-66
2021/12/11 08:21:13;;;;;;;13.43;7.15;;;-0.60;99.90;;;;;;5022590;28;20021;-65
2021/12/11 08:23:44;;;;;;;18.65;7.85;;;-0.40;99.90;;;;;;5030785;28;20029;-65
2021/12/11 08:26:19;;;;;;;10.20;4.85;;;-0.10;99.90;;;;;;5025111;28;20029;-65
2021/12/11 08:28:46;;;;;;;17.75;6.32;;;0.10;99.90;;;;;;5025729;28;20877;-65
2021/12/11 08:31:14;;;;;;;24.10;6.20;;;0.10;99.90;;;;;;5026526;28;20033;-65
2021/12/11 08:33:40;;;;;;;18.35;6.22;;;0.20;99.90;;;;;;5025994;28;20187;-65
2021/12/11 08:36:06;;;;;;;22.40;6.43;;;0.20;99.90;;;;;;5024751;28;20514;-66
2021/12/11 08:38:32;;;;;;;16.08;8.02;;;0.30;99.90;;;;;;5029182;28;20265;-65
2021/12/11 08:41:00;;;;;;;15.05;6.47;;;0.30;99.90;;;;;;5031622;28;20033;-65
2021/12/11 08:43:26;;;;;;;14.80;6.35;;;0.30;99.90;;;;;;5026910;28;20096;-65
2021/12/11 08:46:09;;;;;;;16.60;7.80;;;0.50;99.90;;;;;;5029728;28;20049;-64
2021/12/11 08:48:45;;;;;;;16.95;6.78;;;0.60;99.90;;;;;;5023700;28;20025;-63
2021/12/11 08:51:37;;;;;;;12.93;3.25;;;0.60;99.90;;;;;;5028383;28;20033;-64
2021/12/11 08:54:05;;;;;;;15.02;5.68;;;0.80;99.90;;;;;;5022215;28;20050;-63
2021/12/11 08:56:34;;;;;;;16.33;5.95;;;0.80;99.90;;;;;;5024298;28;20786;-63
2021/12/11 08:59:00;;;;;;;17.02;6.15;;;0.80;99.90;;;;;;5024674;28;20025;-63
2021/12/11 09:01:55;;;;;;;25.00;8.65;;;0.80;99.90;;;;;;5025442;28;20035;-63
2021/12/11 09:04:43;;;;;;;7.88;4.72;;;0.80;99.90;;;;;;5041497;28;20057;-63
2021/12/11 09:07:37;;;;;;;14.55;5.53;;;1.00;99.90;;;;;;5025242;28;20046;-63
2021/12/11 09:10:18;;;;;;;8.13;3.90;;;1.00;99.90;;;;;;5025472;28;20022;-63
2021/12/11 09:12:46;;;;;;;28.73;7.60;;;1.10;99.90;;;;;;5022094;28;20109;-63
2021/12/11 09:15:15;;;;;;;18.55;5.68;;;1.10;99.90;;;;;;5026638;28;20755;-63
2021/12/11 09:17:45;;;;;;;19.23;5.55;;;1.10;99.90;;;;;;5017901;28;20501;-63
2021/12/11 09:20:14;;;;;;;14.35;5.50;;;1.20;99.90;;;;;;5023340;28;20010;-63
2021/12/11 09:22:42;;;;;;;14.77;6.53;;;1.30;99.90;;;;;;5017152;28;20234;-63
2021/12/11 09:25:29;;;;;;;16.40;5.28;;;1.40;99.90;;;;;;5018388;28;20022;-63
2021/12/11 09:28:16;;;;;;;14.18;6.72;;;1.40;99.90;;;;;;5024432;28;20036;-63
2021/12/11 09:30:41;;;;;;;16.55;7.35;;;1.50;99.90;;;;;;5016371;28;20075;-63
2021/12/11 09:33:21;;;;;;;11.27;4.47;;;1.50;99.90;;;;;;5025468;28;20049;-63
2021/12/11 09:36:01;;;;;;;10.20;6.05;;;1.80;99.90;;;;;;5021452;28;20033;-63
2021/12/11 09:38:40;;;;;;;17.58;5.68;;;1.80;99.90;;;;;;5020927;28;20025;-63
2021/12/11 09:41:21;;;;;;;6.35;3.85;;;1.80;99.90;;;;;;5024927;28;20021;-63
2021/12/11 09:43:48;;;;;;;16.75;6.07;;;1.80;99.90;;;;;;5022352;28;20446;-63
2021/12/11 09:46:18;;;;;;;17.45;7.53;;;1.70;99.90;;;;;;5023950;28;20021;-63
2021/12/11 09:48:47;;;;;;;18.23;5.10;;;1.80;99.90;;;;;;5021183;28;20177;-63
2021/12/11 09:51:18;;;;;;;15.52;7.03;;;1.80;99.90;;;;;;5024665;28;20033;-63
2021/12/11 09:53:53;;;;;;;18.92;6.50;;;2.00;99.90;;;;;;5029754;28;20025;-63
2021/12/11 09:56:29;;;;;;;18.48;7.00;;;1.90;99.90;;;;;;5029775;28;20029;-63
2021/12/11 09:58:58;;;;;;;10.43;4.72;;;1.90;99.90;;;;;;5029173;28;20025;-63
2021/12/11 10:01:29;;;;;;;16.55;4.00;;;2.00;99.90;;;;;;5023526;28;20477;-63
2021/12/11 10:04:03;;;;;;;5.50;3.80;;;2.10;99.90;;;;;;5026777;28;20025;-63
2021/12/11 10:07:02;;;;;;;23.30;6.30;;;2.20;99.90;;;;;;5024967;28;20046;-63
2021/12/11 10:09:32;;;;;;;10.75;4.20;;;2.30;99.90;;;;;;5027784;28;20485;-63
2021/12/11 10:12:05;;;;;;;20.13;5.88;;;2.40;99.90;;;;;;5026950;28;20032;-63
2021/12/11 10:14:52;;;;;;;13.73;6.30;;;2.40;99.90;;;;;;5024626;28;20099;-63
2021/12/11 10:17:30;;;;;;;20.33;6.32;;;2.50;99.90;;;;;;5025639;28;20493;-63
2021/12/11 10:20:00;;;;;;;17.58;6.95;;;2.50;99.90;;;;;;5025991;28;20100;-64
2021/12/11 10:22:33;;;;;;;17.35;5.88;;;2.60;99.90;;;;;;5026782;28;20033;-63
2021/12/11 10:25:01;;;;;;;6.07;4.35;;;2.50;99.90;;;;;;5025537;28;20026;-63
2021/12/11 10:27:29;;;;;;;23.45;7.85;;;2.70;99.90;;;;;;5030355;28;20025;-63
2021/12/11 10:29:57;;;;;;;14.48;6.97;;;2.70;99.90;;;;;;5030062;28;20096;-63
2021/12/11 10:32:28;;;;;;;9.98;6.40;;;2.80;99.90;;;;;;5028850;28;20018;-63
2021/12/11 10:34:57;;;;;;;22.98;5.30;;;2.80;99.90;;;;;;5027543;28;20025;-64
2021/12/11 10:37:29;;;;;;;24.25;5.38;;;2.90;99.90;;;;;;5028757;28;20489;-64
2021/12/11 10:39:58;;;;;;;14.63;7.38;;;3.10;99.90;;;;;;5028144;28;20025;-64
2021/12/11 10:42:25;;;;;;;17.70;8.48;;;3.30;99.90;;;;;;5024590;28;20021;-64
2021/12/11 10:44:54;;;;;;;11.77;5.40;;;3.30;99.90;;;;;;5027535;28;20022;-64
2021/12/11 10:47:38;;;;;;;17.45;6.50;;;3.20;99.90;;;;;;5030530;28;20017;-63
2021/12/11 10:50:25;;;;;;;16.35;5.63;;;3.10;99.90;;;;;;5031050;28;20079;-63
2021/12/11 10:52:51;;;;;;;21.73;7.28;;;3.20;99.90;;;;;;5016267;28;20018;-63
2021/12/11 10:55:20;;;;;;;21.55;7.95;;;3.30;99.90;;;;;;5028845;28;20014;-63
2021/12/11 10:57:46;;;;;;;23.45;8.35;;;3.30;99.90;;;;;;5027096;28;20033;-64
2021/12/11 11:00:29;;;;;;;15.35;7.18;;;3.30;99.90;;;;;;5026553;28;20030;-64
2021/12/11 11:02:56;;;;;;;17.33;6.03;;;3.30;99.90;;;;;;5025928;28;20017;-64
2021/12/11 11:05:25;;;;;;;15.38;6.93;;;3.40;99.90;;;;;;5026909;28;20018;-64
2021/12/11 11:07:51;;;;;;;22.43;5.90;;;3.40;99.90;;;;;;5026398;28;20053;-64
2021/12/11 11:10:25;;;;;;;18.70;6.00;;;3.50;99.90;;;;;;5025942;28;20106;-64
2021/12/11 11:12:55;;;;;;;13.57;6.53;;;3.40;99.90;;;;;;5016821;28;20084;-65
2021/12/11 11:15:22;;;;;;;22.58;6.70;;;3.40;99.90;;;;;;5023683;28;20021;-64
2021/12/11 11:17:50;;;;;;;20.30;6.93;;;3.40;99.90;;;;;;5027240;28;20441;-64
2021/12/11 11:20:22;;;;;;;17.55;4.25;;;3.50;99.90;;;;;;5023320;28;20014;-64
2021/12/11 11:22:48;;;;;;;14.25;6.32;;;3.50;99.90;;;;;;5027930;28;20037;-64
2021/12/11 11:25:25;;;;;;;19.15;5.95;;;3.40;99.90;;;;;;5022127;28;20100;-64
2021/12/11 11:27:57;;;;;;;19.00;5.88;;;3.60;99.90;;;;;;5025831;28;20470;-64
2021/12/11 11:30:28;;;;;;;22.05;8.43;;;3.60;99.90;;;;;;5027825;28;20021;-64
2021/12/11 11:32:55;;;;;;;26.08;10.55;;;3.70;99.90;;;;;;5024466;28;20469;-64
2021/12/11 11:35:24;;;;;;;12.60;5.90;;;3.70;99.90;;;;;;5030944;28;20025;-64
2021/12/11 11:37:56;;;;;;;11.68;5.25;;;3.70;99.90;;;;;;5030629;28;20533;-64
2021/12/11 11:40:27;;;;;;;16.55;7.00;;;3.60;99.90;;;;;;5026209;28;20112;-63
2021/12/11 11:42:53;;;;;;;19.05;6.82;;;3.60;99.90;;;;;;5024671;28;20033;-63
2021/12/11 11:45:20;;;;;;;16.52;7.13;;;3.50;99.90;;;;;;5027429;28;20022;-64
2021/12/11 11:47:46;;;;;;;20.30;6.78;;;3.60;99.90;;;;;;5025960;28;20473;-64
2021/12/11 11:50:15;;;;;;;28.50;9.02;;;3.80;99.90;;;;;;5027324;28;20036;-64
2021/12/11 11:52:41;;;;;;;15.50;5.45;;;3.90;99.90;;;;;;5027529;28;20096;-64
2021/12/11 11:55:12;;;;;;;22.58;7.43;;;4.00;99.90;;;;;;5026374;28;20438;-64
2021/12/11 11:57:39;;;;;;;;;;;3.90;99.90;;;;;;5025834;28;20017;-64
2021/12/11 12:00:15;;;;;;;16.98;6.43;;;3.90;99.90;;;;;;5026578;28;20296;-64
2021/12/11 12:02:41;;;;;;;16.13;6.63;;;3.90;99.90;;;;;;5025236;28;20025;-64
2021/12/11 12:05:08;;;;;;;15.10;6.40;;;3.90;99.90;;;;;;5025627;28;20030;-64
2021/12/11 12:07:34;;;;;;;23.52;7.07;;;3.90;99.90;;;;;;5027148;28;20045;-64
2021/12/11 12:10:06;;;;;;;25.23;8.48;;;3.70;99.90;;;;;;5026666;28;20022;-64
2021/12/11 12:12:33;;;;;;;21.55;7.97;;;3.50;99.90;;;;;;5027573;28;20024;-64
2021/12/11 12:14:59;;;;;;;19.80;7.30;;;3.40;99.90;;;;;;5027880;28;20109;-64
2021/12/11 12:17:37;;;;;;;19.50;7.35;;;3.40;99.90;;;;;;5029084;28;20025;-65
2021/12/11 12:20:09;;;;;;;21.55;8.35;;;3.60;99.90;;;;;;5028641;28;20034;-64
2021/12/11 12:22:35;;;;;;;15.80;7.35;;;3.60;99.90;;;;;;5018252;28;20375;-64
2021/12/11 12:25:02;;;;;;;17.92;7.40;;;3.40;99.90;;;;;;5024189;28;20055;-64
2021/12/11 12:27:31;;;;;;;37.22;8.35;;;3.40;99.90;;;;;;5028668;28;20044;-64
2021/12/11 12:29:58;;;;;;;23.65;8.48;;;3.30;99.90;;;;;;5029877;28;20718;-64
2021/12/11 12:32:28;;;;;;;22.80;6.60;;;3.30;99.90;;;;;;5027483;28;20018;-64
2021/12/11 12:34:56;;;;;;;18.92;7.72;;;3.30;99.90;;;;;;5031188;28;20108;-64
2021/12/11 12:37:24;;;;;;;20.73;7.13;;;3.20;99.90;;;;;;5025650;28;20026;-64
2021/12/11 12:39:53;;;;;;;31.13;8.70;;;3.30;99.90;;;;;;5021911;28;20052;-65
2021/12/11 12:42:35;;;;;;;19.73;7.43;;;3.30;99.90;;;;;;5041133;28;20059;-64
2021/12/11 12:45:29;;;;;;;17.80;6.85;;;3.40;99.90;;;;;;5030664;28;20018;-64
2021/12/11 12:48:03;;;;;;;18.60;7.05;;;3.30;99.90;;;;;;5025427;28;20025;-64
2021/12/11 12:50:38;;;;;;;20.00;6.45;;;3.30;99.90;;;;;;5028356;28;20029;-64
2021/12/11 12:53:04;;;;;;;25.17;5.95;;;3.40;99.90;;;;;;5030504;28;20714;-64
2021/12/11 12:55:40;;;;;;;15.20;6.22;;;3.50;99.90;;;;;;5028289;28;20101;-64
2021/12/11 12:58:13;;;;;;;14.73;5.53;;;3.60;99.90;;;;;;5025949;28;20500;-65
2021/12/11 13:00:44;;;;;;;22.05;8.07;;;3.60;99.90;;;;;;5024284;28;20477;-64
2021/12/11 13:03:16;;;;;;;21.25;7.57;;;3.50;99.90;;;;;;5022080;28;20079;-64
2021/12/11 13:05:45;;;;;;;18.75;7.57;;;3.30;99.90;;;;;;5021549;28;20416;-64
2021/12/11 13:08:17;;;;;;;28.17;8.95;;;3.20;99.90;;;;;;5026697;28;20272;-64
2021/12/11 13:10:48;;;;;;;17.63;6.20;;;3.20;99.90;;;;;;5028620;28;20033;-64
2021/12/11 13:13:16;;;;;;;;;;;3.30;99.90;;;;;;5027993;28;20033;-65
2021/12/11 13:15:47;;;;;;;25.92;7.35;;;3.30;99.90;;;;;;5022019;28;19984;-64
2021/12/11 13:18:18;;;;;;;19.95;8.55;;;3.30;99.90;;;;;;5017408;28;20034;-64
2021/12/11 13:21:02;;;;;;;13.45;5.60;;;3.40;99.90;;;;;;5021919;28;20033;-64
2021/12/11 13:23:30;;;;;;;21.70;8.18;;;3.60;99.90;;;;;;5028666;28;20109;-64
2021/12/11 13:25:59;;;;;;;14.52;5.63;;;3.60;99.90;;;;;;5025537;28;20071;-64